Flight Track Log - Related Links

Times and Time Zones

All times are in EST time to prevent confusion due to time zone crossing. See the EJM42 flight status page for this flight to view local times or setup timezone preferences in your user account.

Time Position Orientation Groundspeed Altitude Reporting Facility
EST Latitude Longitude Course Direction KTS MPH feet Rate Location/Type
Mon 06:20:30 AM 40.8333 -74.2167 285° West 238 274 3,000  Level New York TRACON
Mon 06:21:30 AM 40.8833 -74.2333 346° North 248 285 5,900 1,500 Climbing New York TRACON
Mon 06:22:30 AM 40.9500 -74.2000 21° North 254 292 6,000 50 Climbing New York TRACON
Mon 06:23:30 AM 41.0000 -74.1500 37° Northeast 270 311 6,000  Level New York TRACON
Mon 06:24:00 AM 40.9655 -73.7205 77° East  Level Estimated
Mon 06:24:30 AM 41.0500 -74.0667 51° Northeast 275 316 6,000  Level New York TRACON
Mon 06:25:30 AM 41.0833 -73.9833 62° Northeast 274 315 6,000  Level New York TRACON
Mon 06:26:30 AM 41.1333 -73.9000 51° Northeast 275 316 6,000 -100 Level New York TRACON
Mon 06:27:30 AM 41.1667 -73.8000 66° East 278 320 5,800 -500 Descending New York TRACON
Mon 06:28:30 AM 41.2167 -73.7167 51° Northeast 274 315 5,000 -400 Descending New York TRACON
Mon 06:29:30 AM 41.2500 -73.6333 62° Northeast 268 308 5,000 50 Level New York TRACON
Mon 06:30:30 AM 41.2667 -73.5333 77° East 276 318 5,100 50 Climbing New York TRACON
Mon 06:31:30 AM 41.2500 -73.4500 105° East 287 330 5,100 -800 Level New York TRACON
Mon 06:32:30 AM 41.2000 -73.3667 129° Southeast 268 308 3,500 -1,500 Descending New York TRACON
Mon 06:33:30 AM 41.1667 -73.3000 124° Southeast 228 262 2,100 -850 Descending New York TRACON
Mon 06:34:30 AM 41.1333 -73.2500 132° Southeast 192 221 1,800 -450 Descending New York TRACON
Mon 06:35:30 AM 41.1167 -73.2000 114° Southeast 154 177 1,200 -550 Descending New York TRACON
Mon 06:36:30 AM 41.1333 -73.1667 56° Northeast 126 145 700 -500 Descending New York TRACON
Mon 06:38:00 AM 41.1500 -73.1167 143° Southeast  Level FlightAware Approximate
Mon 06:45:00 AM 41.1635 -73.1262 143° Southeast  Level Estimated
Mon 06:46:00 AM 41.1635 -73.1262 143° Southeast  Level Estimated

Login

Don't have an account? Register now (free) for customized features, flight alerts, and more!